MTN001 KDEN-KRDM
Flight info
| Callsign | MTN001 |
|---|---|
| Flight time | 2h 4m |
| Altitude | 34000 |
| Route | ZIMMR3 CHNGY BOI DSD |
| Aircraft | CRJ7/M-SDFGIRWY/S |
Departure
| Time | 2026-05-07 13:55 |
|---|---|
| Airport | Denver International Airport (KDEN) |
Arrival
| Time | 2026-05-07 16:00 |
|---|---|
| Airport | Roberts Field (KRDM) |
| Time | Latitude | Longitude | Altitude | Speed | Heading |
|---|---|---|---|---|---|
| 2026-05-07 12:50 | 39.85750 | -104.66691 | 5364 ft | 0 kts | 2° |
| 2026-05-07 13:29 | 39.85732 | -104.66692 | 5363 ft | 4 kts | 2° |
| 2026-05-07 13:29 | 39.85705 | -104.66693 | 5363 ft | 4 kts | 2° |
| 2026-05-07 13:30 | 39.85690 | -104.66693 | 5363 ft | 1 kts | 2° |
| 2026-05-07 13:34 | 39.85689 | -104.66693 | 5363 ft | 0 kts | 2° |
| 2026-05-07 13:47 | 39.85691 | -104.66693 | 5362 ft | 3 kts | 9° |
| 2026-05-07 13:47 | 39.85698 | -104.66674 | 5363 ft | 5 kts | 96° |
| 2026-05-07 13:47 | 39.85690 | -104.66590 | 5363 ft | 14 kts | 97° |
| 2026-05-07 13:48 | 39.85680 | -104.66428 | 5364 ft | 19 kts | 91° |
| 2026-05-07 13:48 | 39.85692 | -104.66263 | 5362 ft | 18 kts | 54° |
| 2026-05-07 13:48 | 39.85803 | -104.66232 | 5364 ft | 17 kts | 1° |
| 2026-05-07 13:48 | 39.85916 | -104.66230 | 5364 ft | 16 kts | 0° |
| 2026-05-07 13:49 | 39.86024 | -104.66229 | 5362 ft | 15 kts | 0° |
| 2026-05-07 13:49 | 39.86128 | -104.66228 | 5364 ft | 15 kts | 0° |
| 2026-05-07 13:49 | 39.86228 | -104.66227 | 5364 ft | 14 kts | 0° |
| 2026-05-07 13:49 | 39.86332 | -104.66226 | 5364 ft | 16 kts | 0° |
| 2026-05-07 13:50 | 39.86452 | -104.66223 | 5363 ft | 18 kts | 12° |
| 2026-05-07 13:50 | 39.86502 | -104.66071 | 5364 ft | 22 kts | 89° |
| 2026-05-07 13:50 | 39.86502 | -104.65880 | 5364 ft | 21 kts | 91° |
| 2026-05-07 13:50 | 39.86500 | -104.65697 | 5364 ft | 20 kts | 90° |
| 2026-05-07 13:51 | 39.86499 | -104.65522 | 5364 ft | 19 kts | 90° |
| 2026-05-07 13:51 | 39.86497 | -104.65355 | 5364 ft | 18 kts | 91° |
| 2026-05-07 13:51 | 39.86495 | -104.65195 | 5364 ft | 17 kts | 91° |
| 2026-05-07 13:51 | 39.86494 | -104.65043 | 5364 ft | 16 kts | 90° |
| 2026-05-07 13:52 | 39.86493 | -104.64897 | 5364 ft | 16 kts | 90° |
| 2026-05-07 13:52 | 39.86493 | -104.64752 | 5364 ft | 17 kts | 91° |
| 2026-05-07 13:52 | 39.86491 | -104.64594 | 5364 ft | 18 kts | 91° |
| 2026-05-07 13:52 | 39.86489 | -104.64425 | 5364 ft | 18 kts | 90° |
| 2026-05-07 13:53 | 39.86489 | -104.64296 | 5364 ft | 5 kts | 90° |
| 2026-05-07 13:53 | 39.86489 | -104.64293 | 5364 ft | 0 kts | 90° |
| 2026-05-07 13:54 | 39.86488 | -104.64244 | 5364 ft | 12 kts | 90° |
| 2026-05-07 13:54 | 39.86382 | -104.64132 | 5365 ft | 42 kts | 176° |
| 2026-05-07 13:55 | 39.85878 | -104.64135 | 5365 ft | 101 kts | 180° |
| 2026-05-07 13:55 | 39.85333 | -104.64140 | 5364 ft | 134 kts | 181° |
| 2026-05-07 13:55 | 39.83959 | -104.64125 | 5733 ft | 159 kts | 186° |
| 2026-05-07 13:55 | 39.82868 | -104.64515 | 6158 ft | 167 kts | 218° |
| 2026-05-07 13:56 | 39.82157 | -104.65811 | 6481 ft | 195 kts | 254° |
| 2026-05-07 13:56 | 39.82145 | -104.67660 | 6917 ft | 217 kts | 291° |
| 2026-05-07 13:56 | 39.82740 | -104.68763 | 7385 ft | 227 kts | 313° |
| 2026-05-07 13:56 | 39.83807 | -104.70333 | 7784 ft | 243 kts | 307° |
| 2026-05-07 13:57 | 39.84870 | -104.72122 | 8242 ft | 256 kts | 307° |
| 2026-05-07 13:57 | 39.85959 | -104.73989 | 8889 ft | 260 kts | 307° |
| 2026-05-07 13:57 | 39.87054 | -104.75897 | 9554 ft | 268 kts | 308° |
| 2026-05-07 13:57 | 39.88186 | -104.77936 | 9853 ft | 289 kts | 306° |
| 2026-05-07 13:58 | 39.89317 | -104.80243 | 9973 ft | 315 kts | 302° |
| 2026-05-07 13:58 | 39.90421 | -104.82856 | 10027 ft | 343 kts | 299° |
| 2026-05-07 13:58 | 39.91517 | -104.85744 | 10050 ft | 369 kts | 297° |
| 2026-05-07 13:58 | 39.92611 | -104.88694 | 10028 ft | 356 kts | 296° |
| 2026-05-07 13:59 | 39.93255 | -104.91753 | 10068 ft | 343 kts | 279° |
| 2026-05-07 13:59 | 39.93432 | -104.94898 | 10280 ft | 355 kts | 274° |
| 2026-05-07 13:59 | 39.93477 | -104.98121 | 11064 ft | 354 kts | 272° |
| 2026-05-07 13:59 | 39.93488 | -105.01271 | 12195 ft | 342 kts | 272° |
| 2026-05-07 14:00 | 39.93505 | -105.04365 | 13046 ft | 342 kts | 273° |
| 2026-05-07 14:00 | 39.93564 | -105.07470 | 13684 ft | 345 kts | 274° |
| 2026-05-07 14:00 | 39.93634 | -105.10616 | 14280 ft | 348 kts | 274° |
| 2026-05-07 14:00 | 39.93709 | -105.13776 | 14887 ft | 350 kts | 274° |
| 2026-05-07 14:01 | 39.93776 | -105.16960 | 15468 ft | 352 kts | 274° |
| 2026-05-07 14:01 | 39.93841 | -105.20114 | 16048 ft | 353 kts | 274° |
| 2026-05-07 14:01 | 39.93963 | -105.23317 | 16601 ft | 355 kts | 277° |
| 2026-05-07 14:01 | 39.94195 | -105.26517 | 17128 ft | 356 kts | 279° |
| 2026-05-07 14:02 | 39.94475 | -105.29734 | 17645 ft | 358 kts | 279° |
| 2026-05-07 14:02 | 39.94742 | -105.32962 | 18189 ft | 359 kts | 279° |
| 2026-05-07 14:02 | 39.95000 | -105.36213 | 18660 ft | 361 kts | 278° |
| 2026-05-07 14:02 | 39.95244 | -105.39480 | 19141 ft | 363 kts | 278° |
| 2026-05-07 14:03 | 39.95504 | -105.42752 | 19599 ft | 364 kts | 278° |
| 2026-05-07 14:03 | 39.95762 | -105.46042 | 20072 ft | 365 kts | 278° |
| 2026-05-07 14:03 | 39.96018 | -105.49336 | 20535 ft | 366 kts | 278° |
| 2026-05-07 14:03 | 39.96276 | -105.52643 | 20985 ft | 367 kts | 278° |
| 2026-05-07 14:04 | 39.96529 | -105.55966 | 21412 ft | 369 kts | 278° |
| 2026-05-07 14:04 | 39.96784 | -105.59294 | 21885 ft | 370 kts | 278° |
| 2026-05-07 14:04 | 39.97040 | -105.62606 | 22269 ft | 372 kts | 278° |
| 2026-05-07 14:04 | 39.97295 | -105.65972 | 22639 ft | 374 kts | 278° |
| 2026-05-07 14:05 | 39.97529 | -105.69360 | 22998 ft | 376 kts | 277° |
| 2026-05-07 14:05 | 39.97718 | -105.72771 | 23386 ft | 378 kts | 276° |
| 2026-05-07 14:05 | 39.97901 | -105.76206 | 23750 ft | 381 kts | 276° |
| 2026-05-07 14:05 | 39.98073 | -105.79670 | 24068 ft | 383 kts | 276° |
| 2026-05-07 14:06 | 39.98244 | -105.83140 | 24384 ft | 384 kts | 276° |
| 2026-05-07 14:06 | 39.98408 | -105.86623 | 24683 ft | 385 kts | 276° |
| 2026-05-07 14:06 | 39.98564 | -105.90128 | 24984 ft | 386 kts | 276° |
| 2026-05-07 14:06 | 39.98722 | -105.93630 | 25260 ft | 387 kts | 276° |
| 2026-05-07 14:07 | 39.98888 | -105.97142 | 25530 ft | 389 kts | 276° |
| 2026-05-07 14:07 | 39.99059 | -106.00665 | 25797 ft | 390 kts | 276° |
| 2026-05-07 14:07 | 39.99232 | -106.04202 | 26063 ft | 391 kts | 276° |
| 2026-05-07 14:07 | 39.99394 | -106.07744 | 26329 ft | 392 kts | 276° |
| 2026-05-07 14:08 | 39.99544 | -106.11296 | 26581 ft | 393 kts | 276° |
| 2026-05-07 14:08 | 39.99704 | -106.14865 | 26829 ft | 394 kts | 276° |
| 2026-05-07 14:08 | 39.99868 | -106.18395 | 27055 ft | 395 kts | 276° |
| 2026-05-07 14:08 | 40.00036 | -106.21979 | 27277 ft | 396 kts | 276° |
| 2026-05-07 14:09 | 40.00203 | -106.25578 | 27504 ft | 398 kts | 276° |
| 2026-05-07 14:09 | 40.00369 | -106.29187 | 27715 ft | 399 kts | 276° |
| 2026-05-07 14:09 | 40.00536 | -106.32822 | 27918 ft | 400 kts | 276° |
| 2026-05-07 14:09 | 40.00699 | -106.36401 | 28127 ft | 401 kts | 276° |
| 2026-05-07 14:10 | 40.00865 | -106.40046 | 28328 ft | 403 kts | 276° |
| 2026-05-07 14:10 | 40.01037 | -106.43693 | 28505 ft | 403 kts | 278° |
| 2026-05-07 14:10 | 40.01710 | -106.47221 | 28711 ft | 399 kts | 292° |
| 2026-05-07 14:10 | 40.02769 | -106.50557 | 29007 ft | 398 kts | 296° |
| 2026-05-07 14:11 | 40.04047 | -106.53764 | 29288 ft | 396 kts | 300° |
| 2026-05-07 14:11 | 40.05443 | -106.56866 | 29541 ft | 395 kts | 301° |
| 2026-05-07 14:11 | 40.06849 | -106.59949 | 29796 ft | 394 kts | 301° |
| 2026-05-07 14:11 | 40.08214 | -106.63047 | 30042 ft | 393 kts | 300° |
| 2026-05-07 14:12 | 40.09524 | -106.66132 | 30282 ft | 393 kts | 300° |
| 2026-05-07 14:12 | 40.10857 | -106.69266 | 30472 ft | 392 kts | 300° |
| 2026-05-07 14:12 | 40.12183 | -106.72388 | 30646 ft | 392 kts | 300° |
| 2026-05-07 14:12 | 40.13501 | -106.75493 | 30825 ft | 391 kts | 300° |
| 2026-05-07 14:13 | 40.14825 | -106.78612 | 31023 ft | 391 kts | 300° |
| 2026-05-07 14:13 | 40.16139 | -106.81720 | 31187 ft | 390 kts | 300° |
| 2026-05-07 14:13 | 40.17451 | -106.84819 | 31379 ft | 389 kts | 300° |
| 2026-05-07 14:13 | 40.18763 | -106.87923 | 31560 ft | 389 kts | 300° |
| 2026-05-07 14:14 | 40.20052 | -106.90976 | 31741 ft | 388 kts | 300° |
| 2026-05-07 14:14 | 40.21355 | -106.94064 | 31921 ft | 388 kts | 300° |
| 2026-05-07 14:14 | 40.22654 | -106.97148 | 32085 ft | 387 kts | 300° |
| 2026-05-07 14:14 | 40.23951 | -107.00227 | 32262 ft | 386 kts | 300° |
| 2026-05-07 14:15 | 40.25244 | -107.03305 | 32430 ft | 385 kts | 301° |
| 2026-05-07 14:15 | 40.26533 | -107.06371 | 32588 ft | 384 kts | 301° |
| 2026-05-07 14:15 | 40.27819 | -107.09441 | 32757 ft | 383 kts | 301° |
| 2026-05-07 14:15 | 40.29100 | -107.12500 | 32913 ft | 383 kts | 301° |
| 2026-05-07 14:16 | 40.30381 | -107.15556 | 33080 ft | 382 kts | 301° |
| 2026-05-07 14:16 | 40.31657 | -107.18601 | 33245 ft | 381 kts | 301° |
| 2026-05-07 14:16 | 40.32929 | -107.21645 | 33405 ft | 380 kts | 301° |
| 2026-05-07 14:16 | 40.34199 | -107.24689 | 33565 ft | 379 kts | 301° |
| 2026-05-07 14:17 | 40.35465 | -107.27719 | 33715 ft | 378 kts | 301° |
| 2026-05-07 14:17 | 40.36724 | -107.30746 | 33865 ft | 377 kts | 301° |
| 2026-05-07 14:17 | 40.37968 | -107.33732 | 33972 ft | 377 kts | 301° |
| 2026-05-07 14:17 | 40.39225 | -107.36756 | 34109 ft | 377 kts | 301° |
| 2026-05-07 14:18 | 40.40480 | -107.39774 | 34182 ft | 377 kts | 301° |
| 2026-05-07 14:18 | 40.43003 | -107.45851 | 34230 ft | 380 kts | 301° |
| 2026-05-07 14:19 | 40.45437 | -107.51731 | 34238 ft | 381 kts | 301° |
| 2026-05-07 14:19 | 40.47723 | -107.57261 | 34237 ft | 381 kts | 301° |
| 2026-05-07 14:20 | 40.50246 | -107.63380 | 34236 ft | 381 kts | 301° |
| 2026-05-07 14:20 | 40.52523 | -107.68913 | 34221 ft | 380 kts | 301° |
| 2026-05-07 14:21 | 40.55027 | -107.74997 | 34234 ft | 380 kts | 301° |
| 2026-05-07 14:21 | 40.57539 | -107.81126 | 34223 ft | 380 kts | 301° |
| 2026-05-07 14:22 | 40.60042 | -107.87242 | 34220 ft | 380 kts | 301° |
| 2026-05-07 14:22 | 40.62538 | -107.93368 | 34219 ft | 379 kts | 301° |
| 2026-05-07 14:23 | 40.65037 | -107.99492 | 34212 ft | 379 kts | 301° |
| 2026-05-07 14:23 | 40.67513 | -108.05578 | 34204 ft | 379 kts | 301° |
| 2026-05-07 14:24 | 40.69999 | -108.11711 | 34197 ft | 379 kts | 301° |
| 2026-05-07 14:24 | 40.72487 | -108.17838 | 34196 ft | 379 kts | 301° |
| 2026-05-07 14:25 | 40.74972 | -108.23972 | 34184 ft | 379 kts | 301° |
| 2026-05-07 14:25 | 40.77445 | -108.30108 | 34169 ft | 379 kts | 301° |
| 2026-05-07 14:26 | 40.79898 | -108.36211 | 34160 ft | 378 kts | 301° |
| 2026-05-07 14:26 | 40.82363 | -108.42343 | 34148 ft | 378 kts | 301° |
| 2026-05-07 14:27 | 40.84829 | -108.48479 | 34139 ft | 378 kts | 301° |
| 2026-05-07 14:27 | 40.87285 | -108.54615 | 34148 ft | 378 kts | 301° |
| 2026-05-07 14:28 | 40.89734 | -108.60769 | 34132 ft | 378 kts | 301° |
| 2026-05-07 14:28 | 40.92190 | -108.66921 | 34133 ft | 378 kts | 301° |
| 2026-05-07 14:29 | 40.94628 | -108.73042 | 34116 ft | 378 kts | 301° |
| 2026-05-07 14:29 | 40.97068 | -108.79197 | 34117 ft | 378 kts | 301° |
| 2026-05-07 14:30 | 40.99528 | -108.85409 | 33660 ft | 388 kts | 301° |
| 2026-05-07 14:30 | 41.00803 | -108.88624 | 33187 ft | 400 kts | 301° |
| 2026-05-07 14:30 | 41.02109 | -108.91928 | 32735 ft | 410 kts | 300° |
| 2026-05-07 14:30 | 41.03443 | -108.95316 | 32387 ft | 418 kts | 300° |
| 2026-05-07 14:31 | 41.04796 | -108.98739 | 32229 ft | 420 kts | 300° |
| 2026-05-07 14:31 | 41.07481 | -109.05568 | 32145 ft | 420 kts | 300° |
| 2026-05-07 14:32 | 41.10176 | -109.12437 | 32108 ft | 419 kts | 300° |
| 2026-05-07 14:32 | 41.12858 | -109.19293 | 32089 ft | 418 kts | 300° |
| 2026-05-07 14:33 | 41.15532 | -109.26129 | 32091 ft | 417 kts | 300° |
| 2026-05-07 14:33 | 41.18193 | -109.32969 | 32088 ft | 416 kts | 300° |
| 2026-05-07 14:34 | 41.20835 | -109.39755 | 32089 ft | 416 kts | 300° |
| 2026-05-07 14:34 | 41.23487 | -109.46588 | 32080 ft | 416 kts | 300° |
| 2026-05-07 14:35 | 41.26133 | -109.53419 | 32080 ft | 415 kts | 300° |
| 2026-05-07 14:35 | 41.28770 | -109.60257 | 32069 ft | 415 kts | 300° |
| 2026-05-07 14:36 | 41.31405 | -109.67098 | 32064 ft | 414 kts | 300° |
| 2026-05-07 14:36 | 41.34029 | -109.73923 | 32059 ft | 414 kts | 300° |
| 2026-05-07 14:37 | 41.36630 | -109.80709 | 32055 ft | 413 kts | 300° |
| 2026-05-07 14:37 | 41.40538 | -109.90936 | 32046 ft | 413 kts | 300° |
| 2026-05-07 14:38 | 41.43142 | -109.97756 | 32070 ft | 412 kts | 300° |
| 2026-05-07 14:38 | 41.45734 | -110.04575 | 32101 ft | 412 kts | 300° |
| 2026-05-07 14:39 | 41.48324 | -110.11400 | 32131 ft | 412 kts | 300° |
| 2026-05-07 14:39 | 41.50893 | -110.18191 | 32150 ft | 412 kts | 300° |
| 2026-05-07 14:40 | 41.53464 | -110.25019 | 32179 ft | 411 kts | 300° |
| 2026-05-07 14:40 | 41.56043 | -110.31844 | 32164 ft | 411 kts | 300° |
| 2026-05-07 14:41 | 41.58611 | -110.38671 | 32168 ft | 411 kts | 300° |
| 2026-05-07 14:41 | 41.61158 | -110.45469 | 32142 ft | 411 kts | 300° |
| 2026-05-07 14:42 | 41.63722 | -110.52327 | 32166 ft | 411 kts | 300° |
| 2026-05-07 14:42 | 41.66284 | -110.59187 | 32188 ft | 412 kts | 300° |
| 2026-05-07 14:43 | 41.68823 | -110.66002 | 32184 ft | 412 kts | 300° |
| 2026-05-07 14:43 | 41.71374 | -110.72877 | 32174 ft | 412 kts | 300° |
| 2026-05-07 14:44 | 41.73926 | -110.79763 | 32163 ft | 413 kts | 300° |
| 2026-05-07 14:44 | 41.76479 | -110.86665 | 32138 ft | 413 kts | 300° |
| 2026-05-07 14:45 | 41.78596 | -110.92415 | 32112 ft | 414 kts | 300° |
| 2026-05-07 14:45 | 41.81566 | -111.00484 | 32066 ft | 415 kts | 299° |
| 2026-05-07 14:46 | 41.83701 | -111.06300 | 32045 ft | 415 kts | 299° |
| 2026-05-07 14:46 | 41.86232 | -111.13213 | 32030 ft | 415 kts | 299° |
| 2026-05-07 14:47 | 41.88775 | -111.20180 | 32031 ft | 415 kts | 299° |
| 2026-05-07 14:47 | 41.91317 | -111.27154 | 32030 ft | 415 kts | 299° |
| 2026-05-07 14:48 | 41.93855 | -111.34132 | 32031 ft | 416 kts | 299° |
| 2026-05-07 14:48 | 41.96375 | -111.41079 | 32029 ft | 416 kts | 299° |
| 2026-05-07 14:49 | 41.98901 | -111.48063 | 32031 ft | 415 kts | 299° |
| 2026-05-07 14:49 | 42.01429 | -111.55067 | 32056 ft | 416 kts | 299° |
| 2026-05-07 14:50 | 42.03948 | -111.62066 | 32062 ft | 416 kts | 299° |
| 2026-05-07 14:50 | 42.06465 | -111.69084 | 32082 ft | 416 kts | 299° |
| 2026-05-07 14:51 | 42.08982 | -111.76119 | 32072 ft | 417 kts | 299° |
| 2026-05-07 14:51 | 42.11485 | -111.83114 | 32061 ft | 417 kts | 299° |
| 2026-05-07 14:52 | 42.13996 | -111.90160 | 32047 ft | 417 kts | 298° |
| 2026-05-07 14:52 | 42.16503 | -111.97217 | 32040 ft | 417 kts | 298° |
| 2026-05-07 14:53 | 42.19009 | -112.04284 | 32031 ft | 417 kts | 298° |
| 2026-05-07 14:53 | 42.21488 | -112.11296 | 32029 ft | 416 kts | 298° |
| 2026-05-07 14:54 | 42.23982 | -112.18369 | 32033 ft | 416 kts | 298° |
| 2026-05-07 14:54 | 42.26472 | -112.25432 | 32016 ft | 416 kts | 298° |
| 2026-05-07 14:55 | 42.28952 | -112.32506 | 32001 ft | 416 kts | 298° |
| 2026-05-07 14:55 | 42.31423 | -112.39568 | 32007 ft | 415 kts | 298° |
| 2026-05-07 14:56 | 42.33874 | -112.46577 | 32003 ft | 415 kts | 298° |
| 2026-05-07 14:56 | 42.36338 | -112.53647 | 31997 ft | 415 kts | 298° |
| 2026-05-07 14:57 | 42.38796 | -112.60726 | 31996 ft | 415 kts | 298° |
| 2026-05-07 14:57 | 42.41251 | -112.67807 | 31990 ft | 415 kts | 298° |
| 2026-05-07 14:58 | 42.43701 | -112.74893 | 31991 ft | 415 kts | 298° |
| 2026-05-07 14:58 | 42.46148 | -112.81991 | 31990 ft | 416 kts | 298° |
| 2026-05-07 14:59 | 42.48579 | -112.89062 | 31974 ft | 416 kts | 298° |
| 2026-05-07 14:59 | 42.51022 | -112.96182 | 31972 ft | 416 kts | 298° |
| 2026-05-07 15:00 | 42.53455 | -113.03294 | 31974 ft | 416 kts | 298° |
| 2026-05-07 15:00 | 42.55888 | -113.10426 | 31982 ft | 416 kts | 298° |
| 2026-05-07 15:01 | 42.58319 | -113.17574 | 31970 ft | 417 kts | 298° |
| 2026-05-07 15:01 | 42.60734 | -113.24676 | 31964 ft | 417 kts | 298° |
| 2026-05-07 15:02 | 42.63158 | -113.31838 | 31968 ft | 416 kts | 298° |
| 2026-05-07 15:02 | 42.65575 | -113.38994 | 31989 ft | 416 kts | 298° |
| 2026-05-07 15:03 | 42.67986 | -113.46152 | 31999 ft | 416 kts | 297° |
| 2026-05-07 15:03 | 42.70393 | -113.53311 | 32015 ft | 416 kts | 297° |
| 2026-05-07 15:04 | 42.72782 | -113.60439 | 32019 ft | 416 kts | 297° |
| 2026-05-07 15:04 | 42.75177 | -113.67609 | 32021 ft | 416 kts | 297° |
| 2026-05-07 15:05 | 42.77569 | -113.74790 | 32014 ft | 416 kts | 297° |
| 2026-05-07 15:05 | 42.79959 | -113.81971 | 32008 ft | 416 kts | 297° |
| 2026-05-07 15:06 | 42.82341 | -113.89156 | 31996 ft | 416 kts | 297° |
| 2026-05-07 15:06 | 42.84699 | -113.96306 | 31978 ft | 416 kts | 297° |
| 2026-05-07 15:07 | 42.87076 | -114.03501 | 31987 ft | 416 kts | 297° |
| 2026-05-07 15:07 | 42.89450 | -114.10714 | 32005 ft | 416 kts | 297° |
| 2026-05-07 15:08 | 42.91814 | -114.17920 | 32019 ft | 416 kts | 297° |
| 2026-05-07 15:08 | 42.94176 | -114.25138 | 32024 ft | 416 kts | 297° |
| 2026-05-07 15:09 | 42.96533 | -114.32364 | 32031 ft | 417 kts | 297° |
| 2026-05-07 15:09 | 42.98872 | -114.39550 | 32028 ft | 417 kts | 297° |
| 2026-05-07 15:10 | 43.01224 | -114.46792 | 32041 ft | 417 kts | 297° |
| 2026-05-07 15:10 | 43.03571 | -114.54045 | 32057 ft | 417 kts | 297° |
| 2026-05-07 15:11 | 43.05916 | -114.61314 | 32065 ft | 418 kts | 297° |
| 2026-05-07 15:11 | 43.08259 | -114.68591 | 32065 ft | 418 kts | 296° |
| 2026-05-07 15:12 | 43.10599 | -114.75874 | 32056 ft | 418 kts | 296° |
| 2026-05-07 15:12 | 43.12935 | -114.83172 | 32050 ft | 418 kts | 296° |
| 2026-05-07 15:13 | 43.15253 | -114.90437 | 32032 ft | 419 kts | 296° |
| 2026-05-07 15:13 | 43.17585 | -114.97753 | 32013 ft | 419 kts | 296° |
| 2026-05-07 15:14 | 43.19911 | -115.05080 | 31994 ft | 419 kts | 296° |
| 2026-05-07 15:14 | 43.22236 | -115.12428 | 31990 ft | 420 kts | 296° |
| 2026-05-07 15:15 | 43.24562 | -115.19791 | 32001 ft | 421 kts | 296° |
| 2026-05-07 15:15 | 43.26887 | -115.27178 | 32001 ft | 422 kts | 296° |
| 2026-05-07 15:16 | 43.29196 | -115.34534 | 32001 ft | 422 kts | 296° |
| 2026-05-07 15:16 | 43.31521 | -115.41957 | 32002 ft | 423 kts | 296° |
| 2026-05-07 15:17 | 43.33844 | -115.49396 | 32009 ft | 424 kts | 296° |
| 2026-05-07 15:17 | 43.36167 | -115.56856 | 32006 ft | 424 kts | 296° |
| 2026-05-07 15:18 | 43.38488 | -115.64332 | 32004 ft | 425 kts | 296° |
| 2026-05-07 15:18 | 43.40739 | -115.71609 | 32008 ft | 425 kts | 296° |
| 2026-05-07 15:19 | 43.43059 | -115.79125 | 32013 ft | 426 kts | 296° |
| 2026-05-07 15:19 | 43.45368 | -115.86627 | 32037 ft | 426 kts | 296° |
| 2026-05-07 15:20 | 43.47676 | -115.94150 | 32050 ft | 426 kts | 295° |
| 2026-05-07 15:20 | 43.49980 | -116.01678 | 32066 ft | 427 kts | 295° |
| 2026-05-07 15:21 | 43.52270 | -116.09168 | 32091 ft | 427 kts | 295° |
| 2026-05-07 15:21 | 43.54391 | -116.16824 | 32094 ft | 429 kts | 290° |
| 2026-05-07 15:22 | 43.55997 | -116.24796 | 32088 ft | 430 kts | 288° |
| 2026-05-07 15:22 | 43.57300 | -116.32872 | 32093 ft | 433 kts | 284° |
| 2026-05-07 15:23 | 43.58362 | -116.41039 | 32091 ft | 433 kts | 284° |
| 2026-05-07 15:23 | 43.59476 | -116.49144 | 32092 ft | 432 kts | 284° |
| 2026-05-07 15:24 | 43.60615 | -116.57291 | 32091 ft | 432 kts | 284° |
| 2026-05-07 15:24 | 43.61751 | -116.65456 | 32088 ft | 432 kts | 284° |
| 2026-05-07 15:25 | 43.62879 | -116.73610 | 32091 ft | 432 kts | 284° |
| 2026-05-07 15:25 | 43.64000 | -116.81766 | 32081 ft | 432 kts | 284° |
| 2026-05-07 15:26 | 43.65109 | -116.89869 | 32065 ft | 432 kts | 284° |
| 2026-05-07 15:26 | 43.66219 | -116.98017 | 32050 ft | 431 kts | 284° |
| 2026-05-07 15:27 | 43.67321 | -117.06169 | 32038 ft | 431 kts | 284° |
| 2026-05-07 15:27 | 43.68416 | -117.14316 | 32028 ft | 431 kts | 284° |
| 2026-05-07 15:28 | 43.69506 | -117.22463 | 32033 ft | 431 kts | 283° |
| 2026-05-07 15:28 | 43.70592 | -117.30619 | 32030 ft | 431 kts | 283° |
| 2026-05-07 15:29 | 43.71670 | -117.38766 | 32029 ft | 431 kts | 283° |
| 2026-05-07 15:29 | 43.72735 | -117.46868 | 32032 ft | 430 kts | 283° |
| 2026-05-07 15:30 | 43.73803 | -117.55011 | 32030 ft | 430 kts | 283° |
| 2026-05-07 15:30 | 43.74860 | -117.63150 | 32045 ft | 430 kts | 283° |
| 2026-05-07 15:31 | 43.75914 | -117.71307 | 32046 ft | 430 kts | 283° |
| 2026-05-07 15:31 | 43.76784 | -117.78081 | 32045 ft | 430 kts | 283° |
| 2026-05-07 15:32 | 43.78005 | -117.87565 | 32057 ft | 430 kts | 283° |
| 2026-05-07 15:32 | 43.78868 | -117.94400 | 32065 ft | 431 kts | 283° |
| 2026-05-07 15:33 | 43.79899 | -118.02575 | 32047 ft | 431 kts | 283° |
| 2026-05-07 15:33 | 43.80916 | -118.10686 | 32045 ft | 430 kts | 282° |
| 2026-05-07 15:34 | 43.81938 | -118.18860 | 32064 ft | 431 kts | 283° |
| 2026-05-07 15:34 | 43.82955 | -118.27045 | 32060 ft | 431 kts | 282° |
| 2026-05-07 15:35 | 43.83966 | -118.35247 | 32056 ft | 431 kts | 282° |
| 2026-05-07 15:35 | 43.84969 | -118.43442 | 32062 ft | 432 kts | 282° |
| 2026-05-07 15:36 | 43.85964 | -118.51608 | 32064 ft | 432 kts | 282° |
| 2026-05-07 15:36 | 43.86961 | -118.59834 | 32063 ft | 433 kts | 282° |
| 2026-05-07 15:37 | 43.87951 | -118.68071 | 32062 ft | 433 kts | 282° |
| 2026-05-07 15:37 | 43.88931 | -118.76267 | 32081 ft | 433 kts | 282° |
| 2026-05-07 15:38 | 43.89914 | -118.84515 | 32086 ft | 434 kts | 282° |
| 2026-05-07 15:38 | 43.90886 | -118.92777 | 31946 ft | 437 kts | 282° |
| 2026-05-07 15:39 | 43.91384 | -118.96990 | 31462 ft | 448 kts | 282° |
| 2026-05-07 15:39 | 43.91886 | -119.01260 | 30978 ft | 449 kts | 282° |
| 2026-05-07 15:39 | 43.92382 | -119.05531 | 30500 ft | 447 kts | 282° |
| 2026-05-07 15:39 | 43.92875 | -119.09766 | 30002 ft | 441 kts | 282° |
| 2026-05-07 15:40 | 43.93361 | -119.13954 | 29331 ft | 437 kts | 282° |
| 2026-05-07 15:40 | 43.93837 | -119.18095 | 28657 ft | 432 kts | 282° |
| 2026-05-07 15:40 | 43.94302 | -119.22119 | 28025 ft | 423 kts | 282° |
| 2026-05-07 15:40 | 43.94759 | -119.26108 | 27510 ft | 413 kts | 282° |
| 2026-05-07 15:41 | 43.95202 | -119.29993 | 27009 ft | 403 kts | 282° |
| 2026-05-07 15:41 | 43.95636 | -119.33790 | 26518 ft | 393 kts | 282° |
| 2026-05-07 15:41 | 43.96056 | -119.37499 | 26039 ft | 385 kts | 282° |
| 2026-05-07 15:41 | 43.96468 | -119.41128 | 25555 ft | 377 kts | 282° |
| 2026-05-07 15:42 | 43.96871 | -119.44700 | 25081 ft | 370 kts | 282° |
| 2026-05-07 15:42 | 43.97265 | -119.48204 | 24618 ft | 364 kts | 282° |
| 2026-05-07 15:42 | 43.97655 | -119.51659 | 24165 ft | 359 kts | 282° |
| 2026-05-07 15:42 | 43.98039 | -119.55072 | 23718 ft | 355 kts | 281° |
| 2026-05-07 15:43 | 43.98409 | -119.58393 | 23213 ft | 351 kts | 281° |
| 2026-05-07 15:43 | 43.98780 | -119.61732 | 22685 ft | 347 kts | 281° |
| 2026-05-07 15:43 | 43.99147 | -119.65037 | 22167 ft | 344 kts | 281° |
| 2026-05-07 15:43 | 43.99510 | -119.68303 | 21662 ft | 341 kts | 282° |
| 2026-05-07 15:44 | 43.99871 | -119.71544 | 21174 ft | 338 kts | 281° |
| 2026-05-07 15:44 | 44.00225 | -119.74760 | 20686 ft | 335 kts | 281° |
| 2026-05-07 15:44 | 44.00573 | -119.77948 | 20204 ft | 333 kts | 281° |
| 2026-05-07 15:44 | 44.00923 | -119.81114 | 19735 ft | 331 kts | 281° |
| 2026-05-07 15:45 | 44.01268 | -119.84258 | 19271 ft | 328 kts | 281° |
| 2026-05-07 15:45 | 44.01606 | -119.87384 | 18815 ft | 326 kts | 281° |
| 2026-05-07 15:45 | 44.01944 | -119.90487 | 18355 ft | 324 kts | 281° |
| 2026-05-07 15:45 | 44.02279 | -119.93579 | 17841 ft | 322 kts | 281° |
| 2026-05-07 15:46 | 44.02940 | -119.99671 | 16849 ft | 319 kts | 281° |
| 2026-05-07 15:46 | 44.03267 | -120.02721 | 16357 ft | 318 kts | 281° |
| 2026-05-07 15:46 | 44.03593 | -120.05748 | 15875 ft | 316 kts | 280° |
| 2026-05-07 15:47 | 44.03920 | -120.08762 | 15390 ft | 315 kts | 280° |
| 2026-05-07 15:47 | 44.04243 | -120.11767 | 14922 ft | 313 kts | 280° |
| 2026-05-07 15:47 | 44.04561 | -120.14758 | 14460 ft | 312 kts | 280° |
| 2026-05-07 15:47 | 44.04880 | -120.17735 | 13990 ft | 311 kts | 279° |
| 2026-05-07 15:48 | 44.05192 | -120.20707 | 13475 ft | 310 kts | 279° |
| 2026-05-07 15:48 | 44.05506 | -120.23680 | 12974 ft | 309 kts | 279° |
| 2026-05-07 15:48 | 44.05819 | -120.26631 | 12471 ft | 308 kts | 279° |
| 2026-05-07 15:48 | 44.06124 | -120.29528 | 11942 ft | 306 kts | 279° |
| 2026-05-07 15:49 | 44.06436 | -120.32452 | 11469 ft | 305 kts | 279° |
| 2026-05-07 15:49 | 44.06738 | -120.35360 | 11007 ft | 303 kts | 279° |
| 2026-05-07 15:49 | 44.07042 | -120.38257 | 10549 ft | 302 kts | 279° |
| 2026-05-07 15:49 | 44.07341 | -120.41145 | 10097 ft | 300 kts | 279° |
| 2026-05-07 15:50 | 44.07634 | -120.43983 | 9804 ft | 292 kts | 280° |
| 2026-05-07 15:50 | 44.07933 | -120.46725 | 9714 ft | 283 kts | 279° |
| 2026-05-07 15:50 | 44.08230 | -120.49504 | 9665 ft | 294 kts | 279° |
| 2026-05-07 15:50 | 44.08540 | -120.52301 | 9638 ft | 288 kts | 280° |
| 2026-05-07 15:51 | 44.08841 | -120.55005 | 9604 ft | 278 kts | 279° |
| 2026-05-07 15:51 | 44.09024 | -120.56748 | 9593 ft | 272 kts | 279° |
| 2026-05-07 15:51 | 44.09124 | -120.57698 | 9590 ft | 269 kts | 279° |
| 2026-05-07 15:51 | 44.09398 | -120.60315 | 9603 ft | 281 kts | 279° |
| 2026-05-07 15:52 | 44.09690 | -120.63118 | 9628 ft | 297 kts | 279° |
| 2026-05-07 15:52 | 44.09984 | -120.66000 | 9313 ft | 310 kts | 279° |
| 2026-05-07 15:52 | 44.10285 | -120.68952 | 8793 ft | 306 kts | 279° |
| 2026-05-07 15:52 | 44.10582 | -120.71870 | 8296 ft | 303 kts | 278° |
| 2026-05-07 15:53 | 44.10878 | -120.74764 | 7818 ft | 300 kts | 279° |
| 2026-05-07 15:53 | 44.11597 | -120.77441 | 7333 ft | 298 kts | 306° |
| 2026-05-07 15:53 | 44.13087 | -120.79423 | 6934 ft | 294 kts | 322° |
| 2026-05-07 15:53 | 44.14788 | -120.80907 | 6743 ft | 283 kts | 330° |
| 2026-05-07 15:54 | 44.16513 | -120.82109 | 6637 ft | 270 kts | 333° |
| 2026-05-07 15:54 | 44.18174 | -120.83177 | 6591 ft | 256 kts | 333° |
| 2026-05-07 15:54 | 44.19750 | -120.84173 | 6559 ft | 242 kts | 334° |
| 2026-05-07 15:54 | 44.21243 | -120.85133 | 6552 ft | 241 kts | 331° |
| 2026-05-07 15:55 | 44.22678 | -120.86392 | 6453 ft | 236 kts | 319° |
| 2026-05-07 15:55 | 44.23686 | -120.88054 | 6397 ft | 214 kts | 304° |
| 2026-05-07 15:55 | 44.24464 | -120.89691 | 6450 ft | 190 kts | 301° |
| 2026-05-07 15:55 | 44.25145 | -120.91227 | 6175 ft | 180 kts | 300° |
| 2026-05-07 15:56 | 44.25769 | -120.92676 | 5880 ft | 173 kts | 299° |
| 2026-05-07 15:56 | 44.26384 | -120.94172 | 5612 ft | 183 kts | 298° |
| 2026-05-07 15:56 | 44.27025 | -120.95740 | 5368 ft | 191 kts | 299° |
| 2026-05-07 15:56 | 44.27685 | -120.97358 | 5268 ft | 195 kts | 298° |
| 2026-05-07 15:57 | 44.28323 | -120.98918 | 5198 ft | 171 kts | 299° |
| 2026-05-07 15:57 | 44.28875 | -121.00308 | 5081 ft | 160 kts | 293° |
| 2026-05-07 15:57 | 44.29003 | -121.01854 | 4826 ft | 163 kts | 270° |
| 2026-05-07 15:57 | 44.29021 | -121.03443 | 4664 ft | 162 kts | 271° |
| 2026-05-07 15:58 | 44.29033 | -121.05002 | 4577 ft | 159 kts | 270° |
| 2026-05-07 15:58 | 44.28938 | -121.06510 | 4500 ft | 159 kts | 248° |
| 2026-05-07 15:58 | 44.28395 | -121.07820 | 4456 ft | 156 kts | 239° |
| 2026-05-07 15:58 | 44.27845 | -121.09063 | 4153 ft | 147 kts | 240° |
| 2026-05-07 15:59 | 44.27321 | -121.10311 | 3793 ft | 149 kts | 241° |
| 2026-05-07 15:59 | 44.26799 | -121.11580 | 3597 ft | 152 kts | 243° |
| 2026-05-07 15:59 | 44.26299 | -121.12839 | 3322 ft | 145 kts | 242° |
| 2026-05-07 15:59 | 44.25817 | -121.14036 | 3088 ft | 134 kts | 242° |
| 2026-05-07 16:00 | 44.25424 | -121.15036 | 3073 ft | 96 kts | 240° |
| 2026-05-07 16:00 | 44.25193 | -121.15603 | 3074 ft | 27 kts | 244° |
| 2026-05-07 16:00 | 44.25205 | -121.15722 | 3074 ft | 4 kts | 318° |
| 2026-05-07 16:00 | 44.25211 | -121.15730 | 3074 ft | 0 kts | 321° |
| 2026-05-07 16:01 | 44.25213 | -121.15732 | 3074 ft | 0 kts | 321° |
| 2026-05-07 16:01 | 44.25218 | -121.15737 | 3082 ft | 1 kts | 323° |
| 2026-05-07 16:01 | 44.25233 | -121.15752 | 3080 ft | 4 kts | 327° |
| 2026-05-07 16:01 | 44.25259 | -121.15774 | 3079 ft | 5 kts | 327° |
| 2026-05-07 16:02 | 44.25274 | -121.15817 | 3083 ft | 3 kts | 262° |
| 2026-05-07 16:02 | 44.25266 | -121.15848 | 3074 ft | 4 kts | 248° |
| 2026-05-07 16:02 | 44.25253 | -121.15895 | 3076 ft | 5 kts | 260° |
| 2026-05-07 16:02 | 44.25264 | -121.15921 | 3085 ft | 5 kts | 321° |
| 2026-05-07 16:03 | 44.25285 | -121.15940 | 3075 ft | 2 kts | 329° |
| 2026-05-07 16:03 | 44.25287 | -121.15942 | 3075 ft | 0 kts | 329° |